TAF Text Data
IDs:
Format:
Raw Decoded Include METAR

Data at: 0711 UTC 07 Dec 2022

KPQI 070520Z 0706/0806 15005KT P6SM VCSH OVC020
  FM070800 14007KT 6SM -RA BR OVC008
  FM071000 14007KT 4SM -RA BR OVC005
  FM071500 14008KT 2SM -RA BR OVC006 WS020/18040KT
  FM071700 15010G22KT 2SM -RA BR OVC005 WS020/18045KT
  FM080500 VRB03KT 2SM -RA BR OVC003